Time,TemperatureF,DewpointF,PressureIn,WindDirection,WindDirectionDegrees,WindSpeedMPH,WindSpeedGustMPH,Humidity,HourlyPrecipIn,Conditions,Clouds,dailyrainin,SoftwareType,DateUTC
2013-11-09 00:23:00,33.0,28.0,30.34,South,186,0.0,-999.0,82,-99.99,,,-99.99,,2013-11-09 05:23:00,
2013-11-09 00:43:00,33.0,28.0,30.34,South,186,0.0,-999.0,83,-99.99,,,-99.99,,2013-11-09 05:43:00,
2013-11-09 00:53:00,32.0,28.0,30.33,South,186,0.0,-999.0,84,-99.99,,,-99.99,,2013-11-09 05:53:00,
2013-11-09 01:23:00,32.0,28.0,30.34,South,186,0.0,-999.0,85,-99.99,,,-99.99,,2013-11-09 06:23:00,
2013-11-09 01:43:00,31.0,27.0,30.34,South,186,0.0,-999.0,85,-99.99,,,-99.99,,2013-11-09 06:43:00,
2013-11-09 01:54:00,31.0,28.0,30.32,South,186,0.0,-999.0,87,-99.99,,,-99.99,,2013-11-09 06:54:00,
2013-11-09 02:22:00,33.0,29.0,30.33,South,186,0.0,-999.0,84,-99.99,,,-99.99,,2013-11-09 07:22:00,
2013-11-09 02:52:00,32.0,28.0,30.33,South,186,0.0,-999.0,86,-99.99,,,-99.99,,2013-11-09 07:52:00,
2013-11-09 03:22:00,31.0,28.0,30.32,South,186,0.0,-999.0,87,-99.99,,,-99.99,,2013-11-09 08:22:00,
2013-11-09 03:42:00,30.0,27.0,30.32,South,186,0.0,-999.0,88,-99.99,,,-99.99,,2013-11-09 08:42:00,
2013-11-09 03:52:00,30.0,27.0,30.32,South,186,0.0,-999.0,88,-99.99,,,-99.99,,2013-11-09 08:52:00,
2013-11-09 04:22:00,30.0,27.0,30.31,South,186,0.0,-999.0,89,-99.99,,,-99.99,,2013-11-09 09:22:00,
2013-11-09 04:53:00,31.0,27.0,30.30,South,186,0.0,-999.0,86,-99.99,,,-99.99,,2013-11-09 09:53:00,
2013-11-09 05:23:00,30.0,27.0,30.29,South,186,0.0,-999.0,87,-99.99,,,-99.99,,2013-11-09 10:23:00,
2013-11-09 05:52:00,30.0,27.0,30.29,South,186,0.0,-999.0,87,-99.99,,,-99.99,,2013-11-09 10:52:00,
2013-11-09 06:22:00,29.0,26.0,30.30,South,186,0.0,-999.0,89,-99.99,,,-99.99,,2013-11-09 11:22:00,
2013-11-09 06:42:00,30.0,27.0,30.29,South,186,0.0,-999.0,87,-99.99,,,-99.99,,2013-11-09 11:42:00,
2013-11-09 06:52:00,30.0,27.0,30.30,South,186,0.0,-999.0,88,-99.99,,,-99.99,,2013-11-09 11:52:00,
2013-11-09 07:22:00,30.0,27.0,30.30,South,186,0.0,-999.0,88,-99.99,,,-99.99,,2013-11-09 12:22:00,
2013-11-09 07:42:00,30.0,27.0,30.30,South,186,0.0,-999.0,89,-99.99,,,-99.99,,2013-11-09 12:42:00,
2013-11-09 07:52:00,30.0,27.0,30.30,South,186,0.0,-999.0,87,-99.99,,,-99.99,,2013-11-09 12:52:00,
2013-11-09 08:11:00,30.0,27.0,30.30,South,186,0.0,-999.0,88,-99.99,,,-99.99,,2013-11-09 13:11:00,
2013-11-09 08:22:00,31.0,28.0,30.30,South,186,0.0,-999.0,87,-99.99,,,-99.99,,2013-11-09 13:22:00,
2013-11-09 08:42:00,33.0,30.0,30.31,South,186,0.0,-999.0,87,-99.99,,,-99.99,,2013-11-09 13:42:00,
2013-11-09 08:52:00,35.0,30.0,30.30,South,186,0.0,-999.0,83,-99.99,,,-99.99,,2013-11-09 13:52:00,
2013-11-09 09:22:00,39.0,32.0,30.29,SSE,153,0.0,-999.0,75,-99.99,,,-99.99,,2013-11-09 14:22:00,
2013-11-09 11:43:00,56.0,28.0,30.28,West,259,10.0,-999.0,34,-99.99,,,-99.99,,2013-11-09 16:43:00,
2013-11-09 11:52:00,57.0,27.0,30.27,West,267,11.0,-999.0,32,-99.99,,,-99.99,,2013-11-09 16:52:00,
2013-11-09 12:24:00,58.0,28.0,30.27,West,260,9.0,-999.0,32,-99.99,,,-99.99,,2013-11-09 17:24:00,
2013-11-09 12:52:00,59.0,31.0,30.24,SSW,197,9.0,-999.0,34,-99.99,,,-99.99,,2013-11-09 17:52:00,
2013-11-09 13:23:00,60.0,30.0,30.22,WSW,257,10.0,-999.0,32,-99.99,,,-99.99,,2013-11-09 18:23:00,
2013-11-09 13:42:00,61.0,29.0,30.22,West,274,9.0,-999.0,29,-99.99,,,-99.99,,2013-11-09 18:42:00,
2013-11-09 13:52:00,61.0,27.0,30.22,WSW,254,11.0,-999.0,27,-99.99,,,-99.99,,2013-11-09 18:52:00,
2013-11-09 14:23:00,61.0,26.0,30.21,SSW,202,10.0,-999.0,26,-99.99,,,-99.99,,2013-11-09 19:23:00,
2013-11-09 14:42:00,62.0,27.0,30.20,West,271,8.0,-999.0,26,-99.99,,,-99.99,,2013-11-09 19:42:00,
2013-11-09 14:52:00,62.0,28.0,30.20,WSW,238,7.0,-999.0,27,-99.99,,,-99.99,,2013-11-09 19:52:00,
2013-11-09 15:22:00,62.0,23.0,30.20,WSW,250,9.0,-999.0,22,-99.99,,,-99.99,,2013-11-09 20:22:00,
2013-11-09 15:42:00,62.0,23.0,30.21,WSW,258,11.0,-999.0,22,-99.99,,,-99.99,,2013-11-09 20:42:00,
2013-11-09 15:52:00,62.0,22.0,30.20,SW,227,10.0,-999.0,21,-99.99,,,-99.99,,2013-11-09 20:52:00,
2013-11-09 16:22:00,62.0,24.0,30.20,SW,221,9.0,-999.0,23,-99.99,,,-99.99,,2013-11-09 21:22:00,
2013-11-09 16:44:00,61.0,24.0,30.20,WSW,250,8.0,-999.0,24,-99.99,,,-99.99,,2013-11-09 21:44:00,
2013-11-09 16:54:00,60.0,24.0,30.19,SW,234,7.0,-999.0,25,-99.99,,,-99.99,,2013-11-09 21:54:00,
2013-11-09 17:24:00,59.0,26.0,30.19,WSW,238,4.0,-999.0,28,-99.99,,,-99.99,,2013-11-09 22:24:00,
2013-11-09 17:43:00,58.0,27.0,30.19,SW,217,4.0,-999.0,30,-99.99,,,-99.99,,2013-11-09 22:43:00,
2013-11-09 17:54:00,58.0,28.0,30.18,WSW,249,4.0,-999.0,31,-99.99,,,-99.99,,2013-11-09 22:54:00,
2013-11-09 18:22:00,56.0,28.0,30.20,West,267,1.0,-999.0,34,-99.99,,,-99.99,,2013-11-09 23:22:00,
2013-11-09 18:53:00,56.0,29.0,30.20,SW,223,1.0,-999.0,36,-99.99,,,-99.99,,2013-11-09 23:53:00,
2013-11-09 19:12:00,55.0,29.0,30.20,SW,223,1.0,-999.0,37,-99.99,,,-99.99,,2013-11-10 00:12:00,
2013-11-09 19:22:00,54.0,30.0,30.20,SW,223,0.0,-999.0,39,-99.99,,,-99.99,,2013-11-10 00:22:00,
2013-11-09 19:42:00,54.0,30.0,30.21,WSW,237,0.0,-999.0,40,-99.99,,,-99.99,,2013-11-10 00:42:00,
2013-11-09 19:52:00,53.0,30.0,30.21,WSW,242,1.0,-999.0,41,-99.99,,,-99.99,,2013-11-10 00:52:00,
2013-11-09 20:12:00,53.0,31.0,30.21,WSW,250,1.0,-999.0,42,-99.99,,,-99.99,,2013-11-10 01:12:00,
2013-11-09 20:22:00,53.0,31.0,30.21,WSW,248,1.0,-999.0,43,-99.99,,,-99.99,,2013-11-10 01:22:00,
2013-11-09 20:42:00,52.0,31.0,30.22,WSW,248,0.0,-999.0,45,-99.99,,,-99.99,,2013-11-10 01:42:00,
2013-11-09 20:52:00,52.0,32.0,30.22,WSW,248,0.0,-999.0,47,-99.99,,,-99.99,,2013-11-10 01:52:00,
2013-11-09 21:12:00,52.0,32.0,30.22,WSW,240,3.0,-999.0,47,-99.99,,,-99.99,,2013-11-10 02:12:00,
2013-11-09 21:22:00,54.0,33.0,30.22,WSW,256,5.0,-999.0,45,-99.99,,,-99.99,,2013-11-10 02:22:00,
2013-11-09 21:42:00,54.0,33.0,30.23,West,269,6.0,-999.0,45,-99.99,,,-99.99,,2013-11-10 02:42:00,
2013-11-09 21:52:00,54.0,33.0,30.23,West,266,6.0,-999.0,45,-99.99,,,-99.99,,2013-11-10 02:52:00,
2013-11-09 22:22:00,53.0,33.0,30.24,West,262,6.0,-999.0,47,-99.99,,,-99.99,,2013-11-10 03:22:00,
2013-11-09 22:44:00,53.0,34.0,30.23,WSW,246,5.0,-999.0,48,-99.99,,,-99.99,,2013-11-10 03:44:00,
2013-11-09 22:54:00,52.0,33.0,30.24,West,259,5.0,-999.0,48,-99.99,,,-99.99,,2013-11-10 03:54:00,
2013-11-09 23:02:00,-999.0,-99.9,30.24,West,259,5.0,-999.0,-999,-99.99,,,-99.99,,2013-11-10 04:02:00,
2013-11-09 23:23:00,52.0,33.0,30.24,WSW,254,4.0,-999.0,49,-99.99,,,-99.99,,2013-11-10 04:23:00,
2013-11-09 23:52:00,52.0,34.0,30.24,West,275,5.0,-999.0,50,-99.99,,,-99.99,,2013-11-10 04:52:00,